createdAt,value
2023-05-13T00:01:24.464Z,64.09
2023-05-13T00:02:24.913Z,64.66
2023-05-13T00:04:19.489Z,64.85
2023-05-13T00:05:19.943Z,64.47
2023-05-13T00:07:14.537Z,64.66
2023-05-13T00:08:14.964Z,64.85
2023-05-13T00:10:10.567Z,65.14
2023-05-13T00:11:11.011Z,64.66
2023-05-13T00:13:05.601Z,65.62
2023-05-13T00:14:06.000Z,64.95
2023-05-13T00:16:00.672Z,65.52
2023-05-13T00:17:01.038Z,65.81
2023-05-13T00:18:56.668Z,65.42
2023-05-13T00:19:57.055Z,65.62
2023-05-13T00:21:51.659Z,66.00
2023-05-13T00:22:52.099Z,65.23
2023-05-13T00:24:46.709Z,66.00
2023-05-13T00:25:47.135Z,66.58
2023-05-13T00:27:41.757Z,66.00
2023-05-13T00:28:42.169Z,66.19
2023-05-13T00:30:36.778Z,66.38
2023-05-13T00:31:37.285Z,66.38
2023-05-13T00:33:31.821Z,66.29
2023-05-13T00:34:32.242Z,66.29
2023-05-13T00:35:32.675Z,66.38
2023-05-13T00:36:33.105Z,66.38
2023-05-13T00:37:33.553Z,66.77
2023-05-13T00:38:33.972Z,66.86
2023-05-13T00:39:34.396Z,66.77
2023-05-13T00:40:34.824Z,66.38
2023-05-13T00:41:35.258Z,66.77
2023-05-13T00:42:35.684Z,66.77
2023-05-13T00:43:38.029Z,66.67
2023-05-13T00:44:36.553Z,66.67
2023-05-13T00:45:37.009Z,67.15
2023-05-13T00:46:37.409Z,67.05
2023-05-13T00:47:37.849Z,66.67
2023-05-13T00:48:38.270Z,66.67
2023-05-13T00:49:38.701Z,66.86
2023-05-13T00:50:39.129Z,67.05
2023-05-13T00:51:39.581Z,67.63
2023-05-13T00:52:40.028Z,67.44
2023-05-13T00:53:41.045Z,67.63
2023-05-13T00:54:40.854Z,67.82
2023-05-13T00:55:41.284Z,67.34
2023-05-13T00:56:41.721Z,67.63
2023-05-13T00:57:42.144Z,67.79
2023-05-13T00:58:42.577Z,67.69
2023-05-13T00:59:43.006Z,68.30
2023-05-13T01:00:43.435Z,67.60
2023-05-13T01:01:43.916Z,67.60
2023-05-13T01:02:44.326Z,68.27
2023-05-13T01:03:44.719Z,68.46
2023-05-13T01:04:45.160Z,68.74
2023-05-13T01:05:45.587Z,68.74
2023-05-13T01:06:46.018Z,68.94
2023-05-13T01:07:46.460Z,68.74
2023-05-13T01:08:46.872Z,68.46
2023-05-13T01:09:47.308Z,68.55
2023-05-13T01:10:47.747Z,69.23
2023-05-13T01:11:48.196Z,68.65
2023-05-13T01:12:48.604Z,69.03
2023-05-13T01:13:49.061Z,68.94
2023-05-13T01:14:49.452Z,69.32
2023-05-13T01:15:49.890Z,69.23
2023-05-13T01:16:50.358Z,69.03
2023-05-13T01:17:50.802Z,69.51
2023-05-13T01:18:56.084Z,69.42
2023-05-13T01:19:51.633Z,69.70
2023-05-13T01:20:52.040Z,69.32
2023-05-13T01:21:52.467Z,69.80
2023-05-13T01:22:52.897Z,69.80
2023-05-13T01:23:53.356Z,69.89
2023-05-13T01:24:53.760Z,69.89
2023-05-13T01:25:54.197Z,69.80
2023-05-13T01:26:54.621Z,69.32
2023-05-13T01:27:55.047Z,69.51
2023-05-13T01:28:55.506Z,69.51
2023-05-13T01:29:55.909Z,69.80
2023-05-13T01:30:56.410Z,69.89
2023-05-13T01:31:56.768Z,69.89
2023-05-13T01:32:57.227Z,69.80
2023-05-13T01:33:57.633Z,69.80
2023-05-13T01:34:58.058Z,70.18
2023-05-13T01:35:58.486Z,69.70
2023-05-13T01:36:58.921Z,69.70
2023-05-13T01:37:59.352Z,70.28
2023-05-13T01:38:59.783Z,69.60
2023-05-13T01:40:00.209Z,69.80
2023-05-13T01:41:00.644Z,70.09
2023-05-13T01:42:01.085Z,69.89
2023-05-13T01:43:01.499Z,69.80
2023-05-13T01:44:01.929Z,70.18
2023-05-13T01:45:02.370Z,69.89
2023-05-13T01:46:02.811Z,69.70
2023-05-13T01:47:03.278Z,69.99
2023-05-13T01:48:03.751Z,70.09
2023-05-13T01:49:04.095Z,69.99
2023-05-13T01:50:04.619Z,70.47
2023-05-13T01:51:04.939Z,70.37
2023-05-13T01:52:05.372Z,71.04
2023-05-13T01:53:05.802Z,71.87
2023-05-13T01:54:06.228Z,71.71
2023-05-13T01:55:06.669Z,71.33
2023-05-13T01:56:07.093Z,71.52
2023-05-13T01:57:07.527Z,71.33
2023-05-13T01:58:07.951Z,71.33
2023-05-13T01:59:08.387Z,72.16
2023-05-13T02:00:08.812Z,71.87
2023-05-13T02:01:09.241Z,72.16
2023-05-13T02:02:09.765Z,72.16
2023-05-13T02:03:10.166Z,72.16
2023-05-13T02:04:10.535Z,71.97
2023-05-13T02:05:10.970Z,72.73
2023-05-13T02:06:11.388Z,72.54
2023-05-13T02:07:11.839Z,72.83
2023-05-13T02:08:12.257Z,73.30
2023-05-13T02:09:12.680Z,72.92
2023-05-13T02:10:13.136Z,72.92
2023-05-13T02:11:13.536Z,72.73
2023-05-13T02:12:14.001Z,72.34
2023-05-13T02:13:14.399Z,73.40
2023-05-13T02:14:14.828Z,73.50
2023-05-13T02:15:15.264Z,74.55
2023-05-13T02:16:15.713Z,73.97
2023-05-13T02:17:16.119Z,75.31
2023-05-13T02:18:16.551Z,74.26
2023-05-13T02:19:16.978Z,74.65
2023-05-13T02:20:17.411Z,74.36
2023-05-13T02:21:17.845Z,74.84
2023-05-13T02:22:18.289Z,75.70
2023-05-13T02:23:18.733Z,75.51
2023-05-13T02:24:19.134Z,76.18
2023-05-13T02:25:19.574Z,75.98
2023-05-13T02:26:20.000Z,75.41
2023-05-13T02:27:20.456Z,75.98
2023-05-13T02:28:20.845Z,75.51
2023-05-13T02:29:21.280Z,75.22
2023-05-13T02:30:22.004Z,75.31
2023-05-13T02:31:22.168Z,75.31
2023-05-13T02:32:22.576Z,75.51
2023-05-13T02:33:22.993Z,75.70
2023-05-13T02:34:23.424Z,76.08
2023-05-13T02:35:23.851Z,76.37
2023-05-13T02:36:24.286Z,76.37
2023-05-13T02:37:24.709Z,76.56
2023-05-13T02:38:25.146Z,76.27
2023-05-13T02:39:25.569Z,75.89
2023-05-13T02:40:26.009Z,76.37
2023-05-13T02:41:26.454Z,76.27
2023-05-13T02:42:27.582Z,76.81
2023-05-13T02:43:27.292Z,76.81
2023-05-13T02:44:27.716Z,76.75
2023-05-13T02:45:28.148Z,77.00
2023-05-13T02:46:28.668Z,76.52
2023-05-13T02:47:29.055Z,77.57
2023-05-13T02:48:29.435Z,77.28
2023-05-13T02:49:29.872Z,76.90
2023-05-13T02:50:51.476Z,77.38
2023-05-13T02:51:30.730Z,77.86
2023-05-13T02:52:31.163Z,77.38
2023-05-13T02:53:31.587Z,78.05
2023-05-13T02:54:32.027Z,77.67
2023-05-13T02:55:39.094Z,78.24
2023-05-13T02:56:32.892Z,78.72
2023-05-13T02:57:33.321Z,79.49
2023-05-13T02:58:33.740Z,79.68
2023-05-13T02:59:34.171Z,79.58
2023-05-13T03:00:34.593Z,80.44
2023-05-13T03:01:35.136Z,80.35
2023-05-13T03:02:35.550Z,80.25
2023-05-13T03:03:57.045Z,80.35
2023-05-13T03:04:36.313Z,80.44
2023-05-13T03:05:57.906Z,81.21
2023-05-13T03:06:37.188Z,80.82
2023-05-13T03:07:37.598Z,81.02
2023-05-13T03:08:38.037Z,81.21
2023-05-13T03:09:38.463Z,81.84
2023-05-13T03:10:38.901Z,82.51
2023-05-13T03:11:39.323Z,82.60
2023-05-13T03:12:39.746Z,82.03
2023-05-13T03:13:40.179Z,82.12
2023-05-13T03:14:40.601Z,82.79
2023-05-13T03:15:43.465Z,81.59
2023-05-13T03:16:41.497Z,81.49
2023-05-13T03:17:41.939Z,81.49
2023-05-13T03:18:42.432Z,81.93
2023-05-13T03:19:42.769Z,81.02
2023-05-13T03:20:43.210Z,81.84
2023-05-13T03:21:43.612Z,81.45
2023-05-13T03:22:44.042Z,81.65
2023-05-13T03:23:44.470Z,82.89
2023-05-13T03:24:44.892Z,82.41
2023-05-13T03:25:45.322Z,83.46
2023-05-13T03:26:45.753Z,81.93
2023-05-13T03:27:46.184Z,82.79
2023-05-13T03:28:46.610Z,82.70
2023-05-13T03:29:47.036Z,83.27
2023-05-13T03:30:47.473Z,83.65
2023-05-13T03:31:47.994Z,82.98
2023-05-13T03:32:48.364Z,83.08
2023-05-13T03:33:48.756Z,83.08
2023-05-13T03:34:49.183Z,82.70
2023-05-13T03:35:49.631Z,83.17
2023-05-13T03:36:50.039Z,82.70
2023-05-13T03:37:50.470Z,83.27
2023-05-13T03:38:50.961Z,83.46
2023-05-13T03:39:51.332Z,83.17
2023-05-13T03:40:51.771Z,83.27
2023-05-13T03:41:52.188Z,83.37
2023-05-13T03:42:52.639Z,82.89
2023-05-13T03:43:53.052Z,82.51
2023-05-13T03:44:53.479Z,82.79
2023-05-13T03:45:53.901Z,82.51
2023-05-13T03:46:54.514Z,83.56
2023-05-13T03:47:54.838Z,82.70
2023-05-13T03:48:55.187Z,82.79
2023-05-13T03:49:55.620Z,82.70
2023-05-13T03:50:56.052Z,83.08
2023-05-13T03:51:56.471Z,82.70
2023-05-13T03:52:56.914Z,82.70
2023-05-13T03:53:57.346Z,83.08
2023-05-13T03:54:57.760Z,82.45
2023-05-13T03:55:58.212Z,82.64
2023-05-13T03:56:58.629Z,82.03
2023-05-13T03:57:59.049Z,82.26
2023-05-13T03:58:59.486Z,82.60
2023-05-13T03:59:59.918Z,82.17
2023-05-13T04:01:00.339Z,83.27
2023-05-13T04:02:00.805Z,82.79
2023-05-13T04:03:01.204Z,81.93
2023-05-13T04:04:01.651Z,81.88
2023-05-13T04:05:02.123Z,81.84
2023-05-13T04:06:02.489Z,82.79
2023-05-13T04:07:02.910Z,82.89
2023-05-13T04:08:03.346Z,82.70
2023-05-13T04:09:03.777Z,82.03
2023-05-13T04:10:06.129Z,82.70
2023-05-13T04:11:11.663Z,82.89
2023-05-13T04:12:05.081Z,82.89
2023-05-13T04:13:05.481Z,82.70
2023-05-13T04:14:05.920Z,83.65
2023-05-13T04:15:06.344Z,83.17
2023-05-13T04:16:06.779Z,83.65
2023-05-13T04:17:07.378Z,82.51
2023-05-13T04:18:07.806Z,83.08
2023-05-13T04:19:08.128Z,84.03
2023-05-13T04:20:08.498Z,83.94
2023-05-13T04:21:08.921Z,84.23
2023-05-13T04:22:09.347Z,83.84
2023-05-13T04:23:09.774Z,83.56
2023-05-13T04:24:10.213Z,82.51
2023-05-13T04:25:10.660Z,83.37
2023-05-13T04:26:11.072Z,82.60
2023-05-13T04:27:11.490Z,82.98
2023-05-13T04:28:11.924Z,83.27
2023-05-13T04:29:12.353Z,82.93
2023-05-13T04:30:12.776Z,82.64
2023-05-13T04:31:13.208Z,82.83
2023-05-13T04:32:13.685Z,83.03
2023-05-13T04:33:14.109Z,82.93
2023-05-13T04:34:14.494Z,82.83
2023-05-13T04:35:14.936Z,82.35
2023-05-13T04:36:15.412Z,82.31
2023-05-13T04:37:15.781Z,82.07
2023-05-13T04:38:18.160Z,81.88
2023-05-13T04:39:16.640Z,81.59
2023-05-13T04:40:23.762Z,82.17
2023-05-13T04:41:17.492Z,81.02
2023-05-13T04:42:17.930Z,81.21
2023-05-13T04:43:18.361Z,80.73
2023-05-13T04:44:18.780Z,81.21
2023-05-13T04:45:19.213Z,81.30
2023-05-13T04:46:19.690Z,81.30
2023-05-13T04:47:20.101Z,80.54
2023-05-13T04:48:20.496Z,80.35
2023-05-13T04:49:20.929Z,79.29
2023-05-13T04:50:21.585Z,79.20
2023-05-13T04:51:21.794Z,79.10
2023-05-13T04:52:25.138Z,79.29
2023-05-13T04:53:22.657Z,79.68
2023-05-13T04:54:23.103Z,78.63
2023-05-13T04:55:23.507Z,77.76
2023-05-13T04:56:23.929Z,77.76
2023-05-13T04:57:24.467Z,77.67
2023-05-13T04:58:24.911Z,77.61
2023-05-13T04:59:25.218Z,77.67
2023-05-13T05:00:25.659Z,77.90
2023-05-13T05:01:26.129Z,77.99
2023-05-13T05:02:26.514Z,77.90
2023-05-13T05:03:26.966Z,77.57
2023-05-13T05:04:27.367Z,77.90
2023-05-13T05:05:27.799Z,77.70
2023-05-13T05:06:28.227Z,76.65
2023-05-13T05:07:28.653Z,76.65
2023-05-13T05:08:29.084Z,76.37
2023-05-13T05:09:29.524Z,76.08
2023-05-13T05:10:29.945Z,75.79
2023-05-13T05:11:30.376Z,74.74
2023-05-13T05:12:30.797Z,74.45
2023-05-13T05:13:31.233Z,73.88
2023-05-13T05:14:31.686Z,73.69
2023-05-13T05:15:32.098Z,73.21
2023-05-13T05:16:32.519Z,72.38
2023-05-13T05:17:33.053Z,72.58
2023-05-13T05:18:33.457Z,71.62
2023-05-13T05:19:33.848Z,70.85
2023-05-13T05:20:34.239Z,70.95
2023-05-13T05:21:34.668Z,70.56
2023-05-13T05:22:35.100Z,70.47
2023-05-13T05:23:35.529Z,70.09
2023-05-13T05:24:35.956Z,70.18
2023-05-13T05:25:36.382Z,70.09
2023-05-13T05:26:36.819Z,69.80
2023-05-13T05:27:37.258Z,70.28
2023-05-13T05:28:37.684Z,70.21
2023-05-13T05:29:38.105Z,70.18
2023-05-13T05:30:38.539Z,70.09
2023-05-13T05:31:39.053Z,69.64
2023-05-13T05:32:39.468Z,68.59
2023-05-13T05:33:39.826Z,68.40
2023-05-13T05:34:40.258Z,68.40
2023-05-13T05:35:40.689Z,67.82
2023-05-13T05:36:41.120Z,67.54
2023-05-13T05:37:41.556Z,67.44
2023-05-13T05:38:41.996Z,66.86
2023-05-13T05:39:42.411Z,66.99
2023-05-13T05:40:42.845Z,66.67
2023-05-13T05:41:43.270Z,66.13
2023-05-13T05:42:43.739Z,64.69
2023-05-13T05:43:44.134Z,64.40
2023-05-13T05:44:44.564Z,64.69
2023-05-13T05:45:45.141Z,64.50
2023-05-13T05:46:45.434Z,64.69
2023-05-13T05:47:45.888Z,65.08
2023-05-13T05:48:46.276Z,65.88
2023-05-13T05:49:48.718Z,64.72
2023-05-13T05:50:47.136Z,64.05
2023-05-13T05:51:47.580Z,63.19
2023-05-13T05:52:48.008Z,63.19
2023-05-13T05:53:48.433Z,63.09
2023-05-13T05:54:48.890Z,63.19
2023-05-13T05:55:50.104Z,62.90
2023-05-13T05:56:49.788Z,62.42
2023-05-13T05:57:50.145Z,62.52
2023-05-13T05:58:50.598Z,61.18
2023-05-13T05:59:51.017Z,61.49
2023-05-13T06:00:51.449Z,61.21
2023-05-13T06:01:51.877Z,61.49
2023-05-13T06:02:52.381Z,61.11
2023-05-13T06:03:54.868Z,60.63
2023-05-13T06:04:53.235Z,60.25
2023-05-13T06:05:53.612Z,60.25
2023-05-13T06:06:54.082Z,60.44
2023-05-13T06:07:54.478Z,60.44
2023-05-13T06:08:54.902Z,59.09
2023-05-13T06:09:55.346Z,59.29
2023-05-13T06:10:55.765Z,59.32
2023-05-13T06:11:56.208Z,59.51
2023-05-13T06:12:56.639Z,58.74
2023-05-13T06:13:57.061Z,58.55
2023-05-13T06:14:57.492Z,57.78
2023-05-13T06:15:57.955Z,61.52
2023-05-13T06:16:58.360Z,60.31
2023-05-13T06:17:58.818Z,58.00
2023-05-13T06:18:59.294Z,57.33
2023-05-13T06:19:59.650Z,57.14
2023-05-13T06:21:00.119Z,56.27
2023-05-13T06:22:03.267Z,56.46
2023-05-13T06:23:00.948Z,56.66
2023-05-13T06:24:01.379Z,57.33
2023-05-13T06:25:01.816Z,57.36
2023-05-13T06:26:02.249Z,56.71
2023-05-13T06:27:02.682Z,55.01
2023-05-13T06:28:03.309Z,54.85
2023-05-13T06:29:03.544Z,52.66
2023-05-13T06:30:03.982Z,51.43
2023-05-13T06:31:04.459Z,50.59
2023-05-13T06:32:04.863Z,48.97
2023-05-13T06:33:05.352Z,48.71
2023-05-13T06:34:05.735Z,48.54
2023-05-13T06:35:06.184Z,47.00
2023-05-13T06:36:06.601Z,47.09
2023-05-13T06:37:07.038Z,46.92
2023-05-13T06:38:07.489Z,45.98
2023-05-13T06:39:07.925Z,45.01
2023-05-13T06:40:08.397Z,45.04
2023-05-13T06:41:08.809Z,44.84
2023-05-13T06:42:09.285Z,44.87
2023-05-13T06:43:09.684Z,43.71
2023-05-13T06:44:10.126Z,43.05
2023-05-13T06:45:10.566Z,43.15
2023-05-13T06:46:11.014Z,42.00
2023-05-13T06:47:11.533Z,42.14
2023-05-13T06:48:11.960Z,41.39
2023-05-13T06:49:12.345Z,40.73
2023-05-13T06:50:12.798Z,39.06
2023-05-13T06:51:13.252Z,38.76
2023-05-13T06:52:14.217Z,39.36
2023-05-13T06:53:14.200Z,39.95
2023-05-13T06:54:14.652Z,39.18
2023-05-13T06:55:15.108Z,37.81
2023-05-13T06:56:15.478Z,36.83
2023-05-13T06:57:15.920Z,38.19
2023-05-13T06:58:16.363Z,38.21
2023-05-13T06:59:16.815Z,37.82
2023-05-13T07:00:17.268Z,38.06
2023-05-13T07:01:17.768Z,37.86
2023-05-13T07:02:18.174Z,36.77
2023-05-13T07:03:18.651Z,36.85
2023-05-13T07:04:19.311Z,36.74
2023-05-13T07:05:19.509Z,37.96
2023-05-13T07:06:19.965Z,37.87
2023-05-13T07:07:20.416Z,37.88
2023-05-13T07:08:20.859Z,37.90
2023-05-13T07:09:21.307Z,37.16
2023-05-13T07:10:23.957Z,35.98
2023-05-13T07:11:22.208Z,36.29
2023-05-13T07:12:22.677Z,36.35
2023-05-13T07:13:23.110Z,36.95
2023-05-13T07:14:23.565Z,36.93
2023-05-13T07:15:24.242Z,36.52
2023-05-13T07:16:24.484Z,37.19
2023-05-13T07:17:24.984Z,37.11
2023-05-13T07:18:25.429Z,37.11
2023-05-13T07:19:25.879Z,36.91
2023-05-13T07:20:26.350Z,36.82
2023-05-13T07:21:26.739Z,35.94
2023-05-13T07:22:27.184Z,35.85
2023-05-13T07:23:27.640Z,35.66
2023-05-13T07:24:28.085Z,36.06
2023-05-13T07:25:28.541Z,35.96
2023-05-13T07:26:28.992Z,36.24
2023-05-13T07:27:29.448Z,35.48
2023-05-13T07:28:29.898Z,34.41
2023-05-13T07:29:30.381Z,34.30
2023-05-13T07:30:30.867Z,34.38
2023-05-13T07:31:31.268Z,35.13
2023-05-13T07:32:31.797Z,34.84
2023-05-13T07:33:32.197Z,34.75
2023-05-13T07:34:32.659Z,34.75
2023-05-13T07:35:33.085Z,34.86
2023-05-13T07:36:33.555Z,34.01
2023-05-13T07:37:33.983Z,33.72
2023-05-13T07:38:34.439Z,33.25
2023-05-13T07:39:34.902Z,33.91
2023-05-13T07:40:35.361Z,33.44
2023-05-13T07:41:35.812Z,32.86
2023-05-13T07:42:36.260Z,33.06
2023-05-13T07:43:36.710Z,32.07
2023-05-13T07:44:37.187Z,32.47
2023-05-13T07:45:37.702Z,32.18
2023-05-13T07:46:38.114Z,31.60
2023-05-13T07:47:38.588Z,31.99
2023-05-13T07:48:38.988Z,32.06
2023-05-13T07:49:39.446Z,31.49
2023-05-13T07:50:39.896Z,32.04
2023-05-13T07:51:40.355Z,32.06
2023-05-13T07:52:40.813Z,32.52
2023-05-13T07:53:41.275Z,33.10
2023-05-13T07:54:41.718Z,32.91
2023-05-13T07:55:42.178Z,33.10
2023-05-13T07:56:42.627Z,32.92
2023-05-13T07:57:43.090Z,33.39
2023-05-13T07:58:43.548Z,33.57
2023-05-13T07:59:44.950Z,33.51
2023-05-13T08:00:44.443Z,33.80
2023-05-13T08:01:44.910Z,33.51
2023-05-13T08:02:45.430Z,33.80
2023-05-13T08:03:46.083Z,33.51
2023-05-13T08:04:46.292Z,33.41
2023-05-13T08:05:46.745Z,33.91
2023-05-13T08:06:47.187Z,33.04
2023-05-13T08:07:47.648Z,33.33
2023-05-13T08:08:48.100Z,33.81
2023-05-13T08:09:48.554Z,33.81
2023-05-13T08:11:03.776Z,34.11
2023-05-13T08:11:49.458Z,34.28
2023-05-13T08:12:49.912Z,34.28
2023-05-13T08:13:50.369Z,34.38
2023-05-13T08:14:50.832Z,34.19
2023-05-13T08:15:51.283Z,33.99
2023-05-13T08:16:51.828Z,34.45
2023-05-13T08:17:52.266Z,35.12
2023-05-13T08:18:52.747Z,35.50
2023-05-13T08:19:53.118Z,35.31
2023-05-13T08:20:53.622Z,35.52
2023-05-13T08:21:54.027Z,35.56
2023-05-13T08:22:54.490Z,34.11
2023-05-13T08:24:01.783Z,33.62
2023-05-13T08:24:55.399Z,33.89
2023-05-13T08:25:55.896Z,34.41
2023-05-13T08:26:56.291Z,33.83
2023-05-13T08:27:56.747Z,33.69
2023-05-13T08:28:57.203Z,33.04
2023-05-13T08:29:57.668Z,32.18
2023-05-13T08:30:58.147Z,31.71
2023-05-13T08:31:58.594Z,30.75
2023-05-13T08:32:59.080Z,30.35
2023-05-13T08:33:59.516Z,30.26
2023-05-13T08:34:59.955Z,29.75
2023-05-13T08:36:00.458Z,30.05
2023-05-13T08:37:00.862Z,30.05
2023-05-13T08:38:01.315Z,29.55
2023-05-13T08:39:01.777Z,30.33
2023-05-13T08:40:02.244Z,30.59
2023-05-13T08:41:02.688Z,31.16
2023-05-13T08:42:03.226Z,32.18
2023-05-13T08:43:03.620Z,33.12
2023-05-13T08:44:04.064Z,33.62
2023-05-13T08:45:04.518Z,33.25
2023-05-13T08:46:05.017Z,32.86
2023-05-13T08:47:05.597Z,32.87
2023-05-13T08:48:05.992Z,32.29
2023-05-13T08:49:06.351Z,32.29
2023-05-13T08:50:06.815Z,32.87
2023-05-13T08:51:07.329Z,33.09
2023-05-13T08:52:07.760Z,32.10
2023-05-13T08:53:08.305Z,32.00
2023-05-13T08:54:08.690Z,32.89
2023-05-13T08:55:09.116Z,31.66
2023-05-13T08:56:09.545Z,30.79
2023-05-13T08:57:11.842Z,30.87
2023-05-13T08:58:10.482Z,31.32
2023-05-13T08:59:10.920Z,31.31
2023-05-13T09:00:11.403Z,31.49
2023-05-13T09:01:11.858Z,32.07
2023-05-13T09:02:12.321Z,32.06
2023-05-13T09:03:12.740Z,32.06
2023-05-13T09:04:13.207Z,32.15
2023-05-13T09:05:13.714Z,31.96
2023-05-13T09:06:14.104Z,32.07
2023-05-13T09:07:14.559Z,32.00
2023-05-13T09:08:15.015Z,31.05
2023-05-13T09:09:15.464Z,30.74
2023-05-13T09:10:15.945Z,30.76
2023-05-13T09:11:27.358Z,30.87
2023-05-13T09:12:16.833Z,30.51
2023-05-13T09:13:17.300Z,30.05
2023-05-13T09:14:17.749Z,28.63
2023-05-13T09:15:18.221Z,27.95
2023-05-13T09:16:18.717Z,27.62
2023-05-13T09:17:19.124Z,28.58
2023-05-13T09:19:56.015Z,28.92
2023-05-13T09:22:07.597Z,26.79
2023-05-13T09:23:10.807Z,27.48
2023-05-13T09:25:02.934Z,26.78
2023-05-13T09:26:03.205Z,26.89
2023-05-13T09:28:08.722Z,26.80
2023-05-13T09:28:59.356Z,26.20
2023-05-13T09:30:55.309Z,26.24
2023-05-13T09:33:09.543Z,26.70
2023-05-13T09:34:08.312Z,27.00
2023-05-13T09:36:02.934Z,27.68
2023-05-13T09:38:18.166Z,27.09
2023-05-13T09:40:32.881Z,25.56
2023-05-13T09:41:33.033Z,25.37
2023-05-13T09:43:31.909Z,24.39
2023-05-13T09:45:44.267Z,22.87
2023-05-13T09:46:45.156Z,23.05
2023-05-13T09:48:38.660Z,23.23
2023-05-13T09:50:54.530Z,22.90
2023-05-13T09:51:55.005Z,23.29
2023-05-13T09:53:49.662Z,22.99
2023-05-13T09:56:06.206Z,22.99
2023-05-13T10:00:32.211Z,23.01
2023-05-13T10:00:53.077Z,23.19
2023-05-13T10:02:47.934Z,22.55
2023-05-13T10:06:37.825Z,23.11
2023-05-13T10:07:41.005Z,22.91
2023-05-13T10:11:59.317Z,20.81
2023-05-13T10:12:51.503Z,21.10
2023-05-13T10:14:43.631Z,21.42
2023-05-13T10:16:58.676Z,19.67
2023-05-13T10:17:59.072Z,20.28
2023-05-13T10:19:53.696Z,22.67
2023-05-13T10:20:54.367Z,23.07
2023-05-13T10:22:48.810Z,22.69
2023-05-13T10:23:49.309Z,22.22
2023-05-13T10:25:43.960Z,21.06
2023-05-13T10:26:44.396Z,21.33
2023-05-13T10:27:44.961Z,22.49
2023-05-13T10:28:45.314Z,22.99
2023-05-13T10:29:45.779Z,22.41
2023-05-13T10:30:46.248Z,21.26
2023-05-13T10:31:46.819Z,21.67
2023-05-13T10:32:47.254Z,21.95
2023-05-13T10:33:54.158Z,22.06
2023-05-13T10:34:54.639Z,21.67
2023-05-13T10:35:48.548Z,21.39
2023-05-13T10:36:49.016Z,20.89
2023-05-13T10:37:49.501Z,21.66
2023-05-13T10:38:49.947Z,22.31
2023-05-13T10:39:50.400Z,22.71
2023-05-13T10:40:50.858Z,22.31
2023-05-13T10:41:51.322Z,22.96
2023-05-13T10:42:51.799Z,23.82
2023-05-13T10:43:52.244Z,24.48
2023-05-13T10:44:52.728Z,24.50
2023-05-13T10:45:53.238Z,24.29
2023-05-13T10:46:53.687Z,24.80
2023-05-13T10:47:54.196Z,23.66
2023-05-13T10:48:54.552Z,23.18
2023-05-13T10:49:55.022Z,23.07
2023-05-13T10:50:55.471Z,23.28
2023-05-13T10:51:55.956Z,22.81
2023-05-13T10:52:56.394Z,21.95
2023-05-13T10:53:56.862Z,21.37
2023-05-13T10:54:57.320Z,21.56
2023-05-13T10:55:57.779Z,21.69
2023-05-13T10:56:58.554Z,20.50
2023-05-13T10:57:58.692Z,20.68
2023-05-13T10:59:00.154Z,21.08
2023-05-13T11:00:01.921Z,21.00
2023-05-13T11:01:02.669Z,20.42
2023-05-13T11:02:00.710Z,20.42
2023-05-13T11:03:01.103Z,20.03
2023-05-13T11:04:01.644Z,20.51
2023-05-13T11:05:01.966Z,19.60
2023-05-13T11:06:05.165Z,20.50
2023-05-13T11:07:09.663Z,20.17
2023-05-13T11:08:18.311Z,21.22
2023-05-13T11:09:03.787Z,21.43
2023-05-13T11:10:04.270Z,21.05
2023-05-13T11:11:07.685Z,21.29
2023-05-13T11:12:41.177Z,20.21
2023-05-13T11:13:06.674Z,20.48
2023-05-13T11:14:08.350Z,21.46
2023-05-13T11:15:06.569Z,21.57
2023-05-13T11:16:29.211Z,21.59
2023-05-13T11:17:07.525Z,21.03
2023-05-13T11:19:42.279Z,19.34
2023-05-13T11:22:18.735Z,20.89
2023-05-13T11:24:12.833Z,20.28
2023-05-13T11:25:16.043Z,21.32
2023-05-13T11:27:19.186Z,21.92
2023-05-13T11:28:09.159Z,22.30
2023-05-13T11:30:03.183Z,22.45
2023-05-13T11:31:03.611Z,22.72
2023-05-13T11:32:58.386Z,23.58
2023-05-13T11:33:58.722Z,25.10
2023-05-13T11:35:53.378Z,26.09
2023-05-13T11:36:53.830Z,25.67
2023-05-13T11:38:48.511Z,26.89
2023-05-13T11:39:48.938Z,26.51
2023-05-13T11:41:43.576Z,27.17
2023-05-13T11:42:44.054Z,27.93
2023-05-13T11:44:38.670Z,28.99
2023-05-13T11:45:39.198Z,29.19
2023-05-13T11:47:33.798Z,29.28
2023-05-13T11:48:34.187Z,29.36
2023-05-13T11:50:28.822Z,29.56
2023-05-13T11:51:29.264Z,30.24
2023-05-13T11:53:23.925Z,29.77
2023-05-13T11:54:24.335Z,30.25
2023-05-13T11:56:18.955Z,29.96
2023-05-13T11:57:19.406Z,29.86
2023-05-13T11:59:15.068Z,29.96
2023-05-13T12:00:17.263Z,29.47
2023-05-13T12:02:10.130Z,29.28
2023-05-13T12:03:10.590Z,29.57
2023-05-13T12:04:10.982Z,29.28
2023-05-13T12:05:11.535Z,29.19
2023-05-13T12:06:18.830Z,29.28
2023-05-13T12:07:33.690Z,29.19
2023-05-13T12:08:19.320Z,29.46
2023-05-13T12:09:13.286Z,29.75
2023-05-13T12:10:13.659Z,29.08
2023-05-13T12:12:47.239Z,29.08
2023-05-13T12:15:03.228Z,29.46
2023-05-13T12:16:04.232Z,29.85
2023-05-13T12:17:58.856Z,29.94
2023-05-13T12:19:01.334Z,29.56
2023-05-13T12:21:00.918Z,29.28
2023-05-13T12:21:56.334Z,29.67
2023-05-13T12:23:49.189Z,29.28
2023-05-13T12:24:49.665Z,29.19
2023-05-13T12:26:44.264Z,29.46
2023-05-13T12:27:44.698Z,29.94
2023-05-13T12:29:39.328Z,30.43
2023-05-13T12:30:39.763Z,30.33
2023-05-13T12:31:40.281Z,30.43
2023-05-13T12:32:40.684Z,30.04
2023-05-13T12:33:41.083Z,29.83
2023-05-13T12:34:41.532Z,30.33
2023-05-13T12:35:41.961Z,30.52
2023-05-13T12:36:42.437Z,30.43
2023-05-13T12:37:42.838Z,30.73
2023-05-13T12:38:43.291Z,30.73
2023-05-13T12:39:43.729Z,30.54
2023-05-13T12:40:44.162Z,30.73
2023-05-13T12:41:44.630Z,30.73
2023-05-13T12:42:45.060Z,30.93
2023-05-13T12:43:45.482Z,30.44
2023-05-13T12:44:45.932Z,30.25
2023-05-13T12:45:46.362Z,30.75
2023-05-13T12:46:46.876Z,30.54
2023-05-13T12:47:47.254Z,30.73
2023-05-13T12:48:47.686Z,30.35
2023-05-13T12:49:48.124Z,30.52
2023-05-13T12:50:48.562Z,30.82
2023-05-13T12:51:49.006Z,31.09
2023-05-13T12:52:49.455Z,31.30
2023-05-13T12:53:49.884Z,31.68
2023-05-13T12:54:50.323Z,31.49
2023-05-13T12:55:50.766Z,31.49
2023-05-13T12:56:51.230Z,30.82
2023-05-13T12:57:51.647Z,30.62
2023-05-13T12:58:52.089Z,31.30
2023-05-13T12:59:52.524Z,31.20
2023-05-13T13:00:53.001Z,31.88
2023-05-13T13:01:53.464Z,32.26
2023-05-13T13:02:53.998Z,31.99
2023-05-13T13:03:54.353Z,31.89
2023-05-13T13:04:54.727Z,31.88
2023-05-13T13:05:55.165Z,31.98
2023-05-13T13:06:55.616Z,32.65
2023-05-13T13:07:56.044Z,32.65
2023-05-13T13:08:56.514Z,32.65
2023-05-13T13:09:56.965Z,32.67
2023-05-13T13:10:57.374Z,31.89
2023-05-13T13:11:57.808Z,32.09
2023-05-13T13:13:05.056Z,31.89
2023-05-13T13:13:58.689Z,32.57
2023-05-13T13:14:59.151Z,32.86
2023-05-13T13:15:59.593Z,32.47
2023-05-13T13:17:00.005Z,33.05
2023-05-13T13:18:00.548Z,32.76
2023-05-13T13:19:01.935Z,33.05
2023-05-13T13:20:01.356Z,33.07
2023-05-13T13:21:01.780Z,33.07
2023-05-13T13:22:02.226Z,32.96
2023-05-13T13:23:02.653Z,34.23
2023-05-13T13:24:03.097Z,34.23
2023-05-13T13:25:03.537Z,34.62
2023-05-13T13:26:03.989Z,34.41
2023-05-13T13:27:04.495Z,34.50
2023-05-13T13:28:04.930Z,33.65
2023-05-13T13:29:05.295Z,33.84
2023-05-13T13:30:05.729Z,33.94
2023-05-13T13:31:06.196Z,33.75
2023-05-13T13:32:06.638Z,33.17
2023-05-13T13:33:07.093Z,33.36
2023-05-13T13:34:07.585Z,33.65
2023-05-13T13:35:07.946Z,33.26
2023-05-13T13:36:08.389Z,34.04
2023-05-13T13:37:08.822Z,33.55
2023-05-13T13:38:09.263Z,33.55
2023-05-13T13:39:09.705Z,33.36
2023-05-13T13:40:10.161Z,33.26
2023-05-13T13:41:10.589Z,34.13
2023-05-13T13:42:11.031Z,32.97
2023-05-13T13:43:11.478Z,33.17
2023-05-13T13:44:11.914Z,33.17
2023-05-13T13:45:12.356Z,32.87
2023-05-13T13:46:12.836Z,33.17
2023-05-13T13:47:13.257Z,33.17
2023-05-13T13:48:13.733Z,33.17
2023-05-13T13:49:23.256Z,33.26
2023-05-13T13:50:14.568Z,34.12
2023-05-13T13:51:15.005Z,33.63
2023-05-13T13:52:15.445Z,33.34
2023-05-13T13:53:15.931Z,34.21
2023-05-13T13:54:16.331Z,33.54
2023-05-13T13:55:16.807Z,33.25
2023-05-13T13:56:17.210Z,33.05
2023-05-13T13:57:17.670Z,32.96
2023-05-13T13:58:18.095Z,33.15
2023-05-13T13:59:18.558Z,33.73
2023-05-13T14:00:19.087Z,33.44
2023-05-13T14:01:19.447Z,33.07
2023-05-13T14:02:19.911Z,32.68
2023-05-13T14:03:20.421Z,32.78